Time;durP1;ratioP1;P1;durP2;ratioP2;P2;SDS_P1;SDS_P2;PMS_P1;PMS_P2;Temp;Humidity;BMP_temperature;BMP_pressure;BME280_temperature;BME280_humidity;BME280_pressure;Samples;Min_cycle;Max_cycle;Signal;HPM_P1;HPM_P2
2022/10/20 00:01:20;;;;;;;21.73;7.60;;;;;;;;;;5003177;28;20026;-74
2022/10/20 00:03:46;;;;;;;20.92;7.38;;;;;;;;;;5004074;28;20044;-73
2022/10/20 00:06:24;;;;;;;24.02;8.15;;;;;;;;;;5003806;28;20022;-73
2022/10/20 00:08:49;;;;;;;25.33;7.85;;;;;;;;;;5004538;28;20030;-74
2022/10/20 00:11:17;;;;;;;22.92;8.25;;;;;;;;;;4987052;28;20090;-74
2022/10/20 00:13:45;;;;;;;20.23;7.90;;;;;;;;;;5004620;28;20042;-74
2022/10/20 00:16:12;;;;;;;25.98;7.97;;;;;;;;;;5004407;28;20026;-74
2022/10/20 00:18:38;;;;;;;33.15;7.63;;;;;;;;;;4999940;28;20313;-74
2022/10/20 00:21:06;;;;;;;21.55;7.60;;;;;;;;;;5004051;28;20027;-74
2022/10/20 00:23:31;;;;;;;20.40;7.65;;;;;;;;;;5004321;28;20073;-74
2022/10/20 00:26:08;;;;;;;18.63;6.88;;;;;;;;;;5002746;28;20026;-73
2022/10/20 00:28:34;;;;;;;18.75;7.78;;;;;;;;;;5004352;28;20029;-74
2022/10/20 00:31:00;;;;;;;20.35;7.85;;;;;;;;;;5002986;28;20077;-74
2022/10/20 00:33:26;;;;;;;22.20;7.60;;;;;;;;;;5002779;28;20030;-73
2022/10/20 00:35:51;;;;;;;24.55;7.78;;;;;;;;;;5003754;28;20052;-74
2022/10/20 00:38:17;;;;;;;26.58;7.90;;;;;;;;;;4998371;28;20382;-74
2022/10/20 00:40:43;;;;;;;23.23;7.68;;;;;;;;;;4985747;28;20030;-75
2022/10/20 00:43:11;;;;;;;25.85;7.70;;;;;;;;;;5003965;28;20064;-74
2022/10/20 00:45:36;;;;;;;21.90;7.68;;;;;;;;;;5003014;28;20026;-74
2022/10/20 00:48:24;;;;;;;27.48;8.15;;;;;;;;;;5002936;28;20057;-73
2022/10/20 00:50:52;;;;;;;21.13;7.60;;;;;;;;;;5002559;28;20029;-74
2022/10/20 00:53:21;;;;;;;19.40;7.03;;;;;;;;;;5003619;28;20026;-73
2022/10/20 00:55:49;;;;;;;21.20;8.10;;;;;;;;;;5003654;28;20034;-73
2022/10/20 00:58:14;;;;;;;21.90;7.97;;;;;;;;;;5002496;28;20031;-74
2022/10/20 01:00:42;;;;;;;19.48;7.85;;;;;;;;;;5002719;28;20033;-73
2022/10/20 01:03:14;;;;;;;23.48;7.63;;;;;;;;;;5002614;28;20022;-74
2022/10/20 01:05:39;;;;;;;22.30;7.35;;;;;;;;;;5005893;28;20098;-73
2022/10/20 01:08:05;;;;;;;19.15;7.63;;;;;;;;;;5006206;28;20018;-73
2022/10/20 01:10:39;;;;;;;20.15;7.57;;;;;;;;;;5006104;28;20026;-73
2022/10/20 01:13:26;;;;;;;22.77;7.75;;;;;;;;;;5005822;28;20033;-74
2022/10/20 01:16:03;;;;;;;22.65;8.05;;;;;;;;;;5006673;28;20065;-74
2022/10/20 01:19:16;;;;;;;15.98;7.18;;;;;;;;;;5006872;28;20041;-73
2022/10/20 01:21:50;;;;;;;23.55;7.97;;;;;;;;;;4907985;29;20036;-73
2022/10/20 01:24:46;;;;;;;20.02;7.90;;;;;;;;;;4908037;29;20065;-73
2022/10/20 01:27:26;;;;;;;21.45;7.30;;;;;;;;;;4979146;28;20073;-73
2022/10/20 01:29:54;;;;;;;24.85;8.57;;;;;;;;;;4987944;28;20544;-73
2022/10/20 01:32:45;;;;;;;21.42;7.55;;;;;;;;;;5006279;28;20040;-73
2022/10/20 01:35:25;;;;;;;22.17;8.00;;;;;;;;;;4960971;28;20045;-73
2022/10/20 01:38:09;;;;;;;25.73;8.30;;;;;;;;;;5006778;28;20031;-73
2022/10/20 01:41:00;;;;;;;25.85;8.77;;;;;;;;;;5006994;28;20053;-73
2022/10/20 01:43:28;;;;;;;25.92;8.25;;;;;;;;;;5006799;28;20097;-74
2022/10/20 01:45:57;;;;;;;24.83;8.50;;;;;;;;;;5006715;28;20026;-73
2022/10/20 01:48:27;;;;;;;24.80;8.88;;;;;;;;;;4987429;28;20218;-73
2022/10/20 01:50:52;;;;;;;23.88;8.30;;;;;;;;;;5006916;28;20022;-74
2022/10/20 01:53:19;;;;;;;25.70;8.45;;;;;;;;;;5006537;28;20036;-74
2022/10/20 01:55:44;;;;;;;23.15;8.10;;;;;;;;;;5006859;28;20089;-74
2022/10/20 01:58:28;;;;;;;28.33;8.77;;;;;;;;;;5006468;28;20049;-74
2022/10/20 02:01:01;;;;;;;28.70;8.55;;;;;;;;;;4989036;28;20077;-74
2022/10/20 02:04:01;;;;;;;22.58;7.93;;;;;;;;;;4986182;28;20112;-73
2022/10/20 02:06:45;;;;;;;24.70;7.73;;;;;;;;;;4954426;28;20033;-73
2022/10/20 02:09:28;;;;;;;24.15;8.32;;;;;;;;;;5006259;28;20089;-74
2022/10/20 02:11:59;;;;;;;23.58;8.20;;;;;;;;;;5005880;28;20018;-74
2022/10/20 02:14:25;;;;;;;22.38;7.70;;;;;;;;;;5006147;28;20057;-74
2022/10/20 02:17:00;;;;;;;25.20;7.95;;;;;;;;;;5000045;28;20030;-74
2022/10/20 02:19:32;;;;;;;27.88;8.35;;;;;;;;;;5006377;28;20026;-73
2022/10/20 02:21:58;;;;;;;25.92;8.20;;;;;;;;;;5005903;28;20089;-74
2022/10/20 02:24:28;;;;;;;24.45;8.07;;;;;;;;;;5006114;28;20214;-73
2022/10/20 02:26:56;;;;;;;24.02;7.55;;;;;;;;;;5006294;28;20027;-73
2022/10/20 02:29:28;;;;;;;23.33;7.68;;;;;;;;;;5006015;28;20069;-73
2022/10/20 02:31:54;;;;;;;23.02;8.07;;;;;;;;;;5005963;28;20026;-73
2022/10/20 02:34:20;;;;;;;22.08;7.38;;;;;;;;;;5005608;28;20034;-73
2022/10/20 02:36:45;;;;;;;20.90;7.15;;;;;;;;;;5004900;28;20211;-74
2022/10/20 02:39:11;;;;;;;22.33;7.75;;;;;;;;;;5004229;28;20026;-73
2022/10/20 02:41:36;;;;;;;17.15;6.95;;;;;;;;;;5002514;28;20254;-73
2022/10/20 02:44:02;;;;;;;21.85;7.22;;;;;;;;;;5004496;28;20089;-74
2022/10/20 02:46:28;;;;;;;24.52;7.70;;;;;;;;;;4986655;28;20038;-74
2022/10/20 02:48:53;;;;;;;22.13;7.18;;;;;;;;;;5004060;28;20467;-73
2022/10/20 02:51:19;;;;;;;25.75;7.70;;;;;;;;;;5001029;28;20022;-74
2022/10/20 02:53:44;;;;;;;18.15;7.03;;;;;;;;;;5004520;28;20126;-74
2022/10/20 02:56:10;;;;;;;21.42;7.22;;;;;;;;;;5004579;28;20097;-74
2022/10/20 02:58:36;;;;;;;23.40;7.40;;;;;;;;;;5004431;28;20030;-74
2022/10/20 03:01:02;;;;;;;26.27;7.65;;;;;;;;;;5002598;28;20085;-74
2022/10/20 03:03:28;;;;;;;19.45;7.03;;;;;;;;;;5002147;28;20486;-74
2022/10/20 03:05:53;;;;;;;18.48;7.13;;;;;;;;;;5003684;28;20130;-74
2022/10/20 03:08:19;;;;;;;22.25;7.28;;;;;;;;;;5003812;28;20069;-74
2022/10/20 03:10:44;;;;;;;20.65;6.38;;;;;;;;;;5004690;28;20018;-73
2022/10/20 03:13:10;;;;;;;21.33;7.72;;;;;;;;;;4986605;28;20026;-74
2022/10/20 03:15:36;;;;;;;17.38;6.85;;;;;;;;;;5000061;28;20109;-74
2022/10/20 03:18:02;;;;;;;24.55;7.82;;;;;;;;;;4994353;28;20038;-74
2022/10/20 03:20:28;;;;;;;20.13;7.22;;;;;;;;;;4995085;28;20026;-74
2022/10/20 03:22:53;;;;;;;21.83;6.65;;;;;;;;;;4987035;28;20026;-74
2022/10/20 03:25:18;;;;;;;17.83;6.53;;;;;;;;;;5003303;28;20318;-74
2022/10/20 03:27:44;;;;;;;19.00;6.85;;;;;;;;;;4985201;28;20057;-73
2022/10/20 03:30:09;;;;;;;21.08;7.05;;;;;;;;;;5004888;28;20316;-74
2022/10/20 03:32:35;;;;;;;21.40;7.00;;;;;;;;;;5005215;28;20075;-74
2022/10/20 03:35:00;;;;;;;21.98;7.22;;;;;;;;;;4996000;28;20026;-74
2022/10/20 03:37:26;;;;;;;24.90;6.97;;;;;;;;;;4976580;28;20050;-74
2022/10/20 03:39:51;;;;;;;19.75;6.30;;;;;;;;;;4993962;28;20113;-74
2022/10/20 03:42:16;;;;;;;18.08;6.93;;;;;;;;;;5003021;28;20302;-73
2022/10/20 03:44:43;;;;;;;19.55;6.47;;;;;;;;;;5004866;28;20029;-75
2022/10/20 03:47:10;;;;;;;18.75;6.55;;;;;;;;;;5004958;28;20216;-74
2022/10/20 03:49:36;;;;;;;25.55;6.97;;;;;;;;;;4984434;28;20032;-74
2022/10/20 03:52:02;;;;;;;19.85;6.63;;;;;;;;;;5004428;28;20026;-74
2022/10/20 03:54:27;;;;;;;24.73;7.10;;;;;;;;;;5003313;28;20113;-74
2022/10/20 03:56:52;;;;;;;18.90;6.72;;;;;;;;;;4987189;28;20030;-74
2022/10/20 03:59:18;;;;;;;21.75;7.32;;;;;;;;;;5002875;28;20101;-75
2022/10/20 04:01:44;;;;;;;20.20;7.07;;;;;;;;;;5004519;28;20023;-74
2022/10/20 04:04:10;;;;;;;16.17;6.55;;;;;;;;;;5003424;28;20022;-74
2022/10/20 04:06:36;;;;;;;17.88;6.53;;;;;;;;;;5004555;28;20053;-74
2022/10/20 04:09:01;;;;;;;17.35;6.55;;;;;;;;;;5002822;28;20214;-74
2022/10/20 04:11:27;;;;;;;21.05;6.47;;;;;;;;;;5001915;28;20018;-74
2022/10/20 04:13:53;;;;;;;19.23;6.90;;;;;;;;;;5004518;28;20061;-74
2022/10/20 04:16:18;;;;;;;16.70;6.45;;;;;;;;;;5004201;28;20021;-73
2022/10/20 04:18:44;;;;;;;16.15;6.25;;;;;;;;;;5000766;28;20097;-74
2022/10/20 04:21:10;;;;;;;25.88;7.00;;;;;;;;;;5004291;28;20023;-74
2022/10/20 04:23:35;;;;;;;22.23;6.60;;;;;;;;;;5003987;28;20014;-74
2022/10/20 04:26:08;;;;;;;19.80;6.78;;;;;;;;;;5004419;28;20310;-74
2022/10/20 04:28:33;;;;;;;16.70;6.18;;;;;;;;;;5004313;28;20041;-74
2022/10/20 04:30:59;;;;;;;20.55;6.68;;;;;;;;;;4982749;28;20042;-74
2022/10/20 04:33:24;;;;;;;19.60;6.32;;;;;;;;;;5001481;28;20093;-74
2022/10/20 04:35:57;;;;;;;17.83;6.00;;;;;;;;;;5004017;28;20035;-73
2022/10/20 04:38:22;;;;;;;19.23;6.35;;;;;;;;;;5005355;28;20093;-73
2022/10/20 04:40:59;;;;;;;18.65;6.35;;;;;;;;;;5007831;28;20057;-74
2022/10/20 04:43:24;;;;;;;15.82;5.80;;;;;;;;;;5007970;28;20027;-74
2022/10/20 04:45:52;;;;;;;20.67;6.13;;;;;;;;;;5007726;28;20029;-74
2022/10/20 04:48:18;;;;;;;16.65;6.88;;;;;;;;;;5007829;28;20022;-73
2022/10/20 04:50:43;;;;;;;18.13;6.55;;;;;;;;;;5007819;28;20089;-74
2022/10/20 04:53:09;;;;;;;21.33;6.93;;;;;;;;;;5006568;28;20318;-73
2022/10/20 04:55:34;;;;;;;17.63;6.18;;;;;;;;;;5006293;28;20072;-74
2022/10/20 04:58:00;;;;;;;20.20;6.50;;;;;;;;;;5005836;28;20018;-74
2022/10/20 05:00:26;;;;;;;16.48;6.38;;;;;;;;;;5004818;28;20045;-73
2022/10/20 05:02:51;;;;;;;18.75;6.70;;;;;;;;;;5006288;28;20045;-73
2022/10/20 05:05:16;;;;;;;21.20;7.25;;;;;;;;;;5002554;28;20030;-73
2022/10/20 05:07:42;;;;;;;16.55;6.30;;;;;;;;;;4996930;28;20026;-73
2022/10/20 05:10:07;;;;;;;23.30;7.30;;;;;;;;;;4996446;28;20018;-73
2022/10/20 05:12:33;;;;;;;20.95;7.15;;;;;;;;;;4996545;28;20034;-73
2022/10/20 05:14:58;;;;;;;22.25;7.40;;;;;;;;;;4996681;28;20157;-73
2022/10/20 05:17:24;;;;;;;21.15;7.90;;;;;;;;;;4979034;28;20050;-73
2022/10/20 05:19:49;;;;;;;20.80;7.75;;;;;;;;;;4996498;28;20014;-73
2022/10/20 05:22:14;;;;;;;22.67;8.13;;;;;;;;;;5004813;28;20034;-73
2022/10/20 05:24:40;;;;;;;20.70;8.60;;;;;;;;;;4996411;28;20037;-73
2022/10/20 05:27:05;;;;;;;26.77;8.55;;;;;;;;;;5001205;28;20030;-74
2022/10/20 05:29:31;;;;;;;25.48;9.70;;;;;;;;;;4988536;28;20022;-73
2022/10/20 05:31:56;;;;;;;26.75;10.30;;;;;;;;;;4996119;28;20027;-74
2022/10/20 05:34:21;;;;;;;27.90;10.38;;;;;;;;;;4996163;28;20023;-74
2022/10/20 05:36:47;;;;;;;28.58;11.15;;;;;;;;;;4995776;28;20074;-74
2022/10/20 05:39:12;;;;;;;26.85;10.57;;;;;;;;;;4995855;28;20029;-73
2022/10/20 05:41:38;;;;;;;35.03;11.35;;;;;;;;;;4997584;28;20034;-73
2022/10/20 05:44:04;;;;;;;28.95;11.00;;;;;;;;;;5003697;28;20029;-74
2022/10/20 05:46:32;;;;;;;26.10;10.57;;;;;;;;;;4980972;28;20260;-74
2022/10/20 05:48:59;;;;;;;25.67;11.45;;;;;;;;;;5006609;28;20029;-74
2022/10/20 05:51:27;;;;;;;24.02;10.48;;;;;;;;;;5006203;28;20018;-74
2022/10/20 05:53:57;;;;;;;21.25;10.95;;;;;;;;;;5006827;28;20148;-74
2022/10/20 05:56:24;;;;;;;28.35;11.38;;;;;;;;;;5002273;28;20326;-74
2022/10/20 05:58:50;;;;;;;27.83;10.82;;;;;;;;;;5006279;28;20030;-74
2022/10/20 06:01:22;;;;;;;26.75;10.63;;;;;;;;;;5006437;28;20340;-75
2022/10/20 06:03:58;;;;;;;22.77;10.02;;;;;;;;;;4987568;28;20098;-75
2022/10/20 06:06:27;;;;;;;29.27;10.10;;;;;;;;;;5000969;28;20065;-75
2022/10/20 06:08:57;;;;;;;23.38;10.30;;;;;;;;;;5006189;28;20049;-84
2022/10/20 06:11:23;;;;;;;24.33;9.95;;;;;;;;;;5006169;28;20025;-80
2022/10/20 06:13:48;;;;;;;26.90;10.23;;;;;;;;;;5005943;28;20026;-76
2022/10/20 06:16:16;;;;;;;26.65;10.48;;;;;;;;;;5006004;28;20034;-82
2022/10/20 06:18:42;;;;;;;26.92;10.45;;;;;;;;;;5005546;28;20101;-73
2022/10/20 06:21:13;;;;;;;28.63;10.57;;;;;;;;;;5000091;28;20470;-73
2022/10/20 06:23:39;;;;;;;27.63;10.25;;;;;;;;;;4995385;28;20030;-74
2022/10/20 06:26:08;;;;;;;22.63;10.25;;;;;;;;;;4977945;28;20043;-73
2022/10/20 06:28:35;;;;;;;22.75;10.20;;;;;;;;;;4980665;28;20027;-74
2022/10/20 06:31:41;;;;;;;26.65;10.40;;;;;;;;;;5004534;28;20276;-74
2022/10/20 06:34:14;;;;;;;25.98;10.43;;;;;;;;;;4961856;28;20038;-74
2022/10/20 06:36:40;;;;;;;24.20;10.00;;;;;;;;;;5003923;28;20045;-75
2022/10/20 06:39:09;;;;;;;21.08;10.73;;;;;;;;;;4998320;28;20133;-77
2022/10/20 06:41:35;;;;;;;28.00;10.10;;;;;;;;;;4998555;28;20026;-73
2022/10/20 06:44:00;;;;;;;25.58;10.02;;;;;;;;;;5003804;28;20022;-74
2022/10/20 06:46:31;;;;;;;26.15;9.73;;;;;;;;;;4986669;28;20082;-77
2022/10/20 06:49:02;;;;;;;27.55;10.23;;;;;;;;;;5003039;28;20026;-75
2022/10/20 06:51:32;;;;;;;27.30;10.73;;;;;;;;;;5005347;28;20077;-75
2022/10/20 06:53:59;;;;;;;29.75;10.75;;;;;;;;;;4987128;28;20038;-74
2022/10/20 06:56:27;;;;;;;30.65;10.63;;;;;;;;;;5002718;28;20214;-75
2022/10/20 06:58:55;;;;;;;30.00;10.45;;;;;;;;;;4999450;28;20061;-76
2022/10/20 07:01:34;;;;;;;27.60;9.70;;;;;;;;;;4998685;28;20105;-74
2022/10/20 07:04:03;;;;;;;27.13;10.53;;;;;;;;;;4997593;28;20023;-74
2022/10/20 07:06:31;;;;;;;30.73;10.48;;;;;;;;;;5004672;28;20318;-74
2022/10/20 07:08:57;;;;;;;24.05;10.25;;;;;;;;;;5004659;28;20058;-74
2022/10/20 07:11:25;;;;;;;24.77;9.73;;;;;;;;;;5002163;28;20030;-74
2022/10/20 07:13:51;;;;;;;29.63;10.40;;;;;;;;;;5001974;28;20077;-75
2022/10/20 07:16:19;;;;;;;26.30;9.80;;;;;;;;;;4999817;28;20030;-73
2022/10/20 07:18:45;;;;;;;27.10;10.07;;;;;;;;;;4994954;28;20030;-73
2022/10/20 07:21:13;;;;;;;27.90;9.70;;;;;;;;;;4996443;28;20054;-73
2022/10/20 07:23:39;;;;;;;25.10;9.52;;;;;;;;;;5000045;28;20050;-74
2022/10/20 07:26:14;;;;;;;29.65;9.77;;;;;;;;;;4977290;28;20022;-73
2022/10/20 07:28:41;;;;;;;27.25;9.90;;;;;;;;;;4995332;28;20391;-80
2022/10/20 07:31:29;;;;;;;31.38;9.57;;;;;;;;;;4994443;28;20385;-78
2022/10/20 07:33:57;;;;;;;31.88;9.73;;;;;;;;;;4993982;28;20026;-78
2022/10/20 07:36:25;;;;;;;31.65;9.70;;;;;;;;;;4976420;28;20080;-77
2022/10/20 07:38:54;;;;;;;28.77;9.15;;;;;;;;;;4976604;28;20026;-77
2022/10/20 07:41:19;;;;;;;30.40;9.23;;;;;;;;;;4994025;28;20033;-77
2022/10/20 07:43:45;;;;;;;29.23;9.48;;;;;;;;;;4994092;28;20022;-77
2022/10/20 07:46:11;;;;;;;28.20;8.70;;;;;;;;;;4993935;28;20022;-75
2022/10/20 07:48:37;;;;;;;32.55;8.90;;;;;;;;;;4994194;28;20034;-74
2022/10/20 07:51:25;;;;;;;26.95;9.02;;;;;;;;;;4994204;28;20022;-74
2022/10/20 07:53:53;;;;;;;30.85;9.60;;;;;;;;;;4976831;28;20117;-74
2022/10/20 07:56:19;;;;;;;22.58;8.60;;;;;;;;;;4994013;28;20026;-75
2022/10/20 07:58:45;;;;;;;31.15;9.05;;;;;;;;;;4993558;28;20386;-74
2022/10/20 08:01:11;;;;;;;30.38;8.88;;;;;;;;;;4995175;28;20093;-75
2022/10/20 08:03:36;;;;;;;34.55;9.48;;;;;;;;;;4993957;28;20106;-75
2022/10/20 08:06:02;;;;;;;26.73;9.10;;;;;;;;;;4993987;28;20033;-74
2022/10/20 08:08:27;;;;;;;28.77;9.45;;;;;;;;;;4993604;28;20030;-74
2022/10/20 08:10:53;;;;;;;27.77;9.18;;;;;;;;;;4993900;28;20492;-74
2022/10/20 08:13:18;;;;;;;24.30;9.20;;;;;;;;;;4995720;28;20026;-74
2022/10/20 08:15:44;;;;;;;26.90;9.25;;;;;;;;;;5005675;28;20084;-74
2022/10/20 08:18:09;;;;;;;30.23;9.68;;;;;;;;;;5001722;28;20105;-74
2022/10/20 08:20:35;;;;;;;25.85;9.13;;;;;;;;;;4980464;28;20030;-75
2022/10/20 08:23:00;;;;;;;26.02;8.88;;;;;;;;;;4999853;28;20492;-74
2022/10/20 08:25:26;;;;;;;31.52;9.63;;;;;;;;;;4979801;28;20439;-74
2022/10/20 08:27:51;;;;;;;24.58;8.95;;;;;;;;;;4997793;28;20546;-75
2022/10/20 08:30:17;;;;;;;29.20;9.80;;;;;;;;;;5002943;28;20022;-76
2022/10/20 08:32:42;;;;;;;25.83;9.38;;;;;;;;;;5008105;28;20018;-76
2022/10/20 08:35:08;;;;;;;27.50;9.10;;;;;;;;;;5006841;28;20213;-77
2022/10/20 08:37:35;;;;;;;29.75;9.60;;;;;;;;;;5007194;28;20050;-76
2022/10/20 08:40:02;;;;;;;33.40;10.02;;;;;;;;;;5006152;28;20034;-77
2022/10/20 08:42:27;;;;;;;32.17;10.63;;;;;;;;;;5002384;28;20038;-75
2022/10/20 08:44:57;;;;;;;30.73;9.95;;;;;;;;;;4999989;28;20026;-75
2022/10/20 08:47:30;;;;;;;29.40;10.00;;;;;;;;;;4999566;28;20077;-75
2022/10/20 08:49:57;;;;;;;27.98;9.75;;;;;;;;;;4999180;28;20069;-75
2022/10/20 08:52:24;;;;;;;31.45;9.88;;;;;;;;;;4997481;28;20038;-75
2022/10/20 08:54:52;;;;;;;29.50;10.57;;;;;;;;;;4997942;28;20034;-75
2022/10/20 08:57:30;;;;;;;29.08;10.20;;;;;;;;;;4999928;28;20030;-76
2022/10/20 09:00:06;;;;;;;28.08;9.68;;;;;;;;;;4985705;28;20030;-76
2022/10/20 09:02:33;;;;;;;32.22;9.98;;;;;;;;;;5003123;28;20058;-76
2022/10/20 09:04:59;;;;;;;26.92;9.73;;;;;;;;;;5002690;28;20033;-75
2022/10/20 09:07:31;;;;;;;29.73;9.98;;;;;;;;;;5003173;28;20498;-80
2022/10/20 09:10:25;;;;;;;35.95;9.90;;;;;;;;;;5001556;28;20084;-75
2022/10/20 09:12:51;;;;;;;26.90;9.32;;;;;;;;;;4987792;28;20038;-77
2022/10/20 09:15:18;;;;;;;29.25;9.80;;;;;;;;;;5001481;28;20052;-75
2022/10/20 09:17:54;;;;;;;27.10;9.45;;;;;;;;;;5004268;28;20156;-77
2022/10/20 09:20:27;;;;;;;27.90;9.57;;;;;;;;;;5001483;28;20089;-76
2022/10/20 09:22:52;;;;;;;30.50;10.00;;;;;;;;;;5003872;28;20034;-76
2022/10/20 09:25:22;;;;;;;32.70;9.52;;;;;;;;;;5004895;28;20018;-76
2022/10/20 09:27:49;;;;;;;28.70;8.88;;;;;;;;;;4988451;28;20206;-76
2022/10/20 09:30:19;;;;;;;27.73;8.95;;;;;;;;;;5002299;28;20037;-76
2022/10/20 09:32:44;;;;;;;30.30;9.20;;;;;;;;;;5006775;28;20022;-76
2022/10/20 09:35:19;;;;;;;32.35;8.95;;;;;;;;;;5003413;28;20293;-75
2022/10/20 09:37:57;;;;;;;29.80;8.95;;;;;;;;;;4995953;28;20026;-76
2022/10/20 09:40:25;;;;;;;25.45;8.80;;;;;;;;;;4996353;28;20504;-75
2022/10/20 09:43:06;;;;;;;22.00;8.95;;;;;;;;;;4996001;28;20033;-75
2022/10/20 09:45:34;;;;;;;27.58;9.02;;;;;;;;;;4978352;28;20030;-75
2022/10/20 09:48:19;;;;;;;30.35;8.68;;;;;;;;;;4979292;28;20125;-75
2022/10/20 09:50:50;;;;;;;24.45;8.75;;;;;;;;;;4995942;28;20363;-75
2022/10/20 09:53:22;;;;;;;25.67;8.48;;;;;;;;;;4995808;28;20030;-75
2022/10/20 09:55:50;;;;;;;24.80;7.93;;;;;;;;;;4995737;28;20038;-75
2022/10/20 09:58:31;;;;;;;25.00;8.30;;;;;;;;;;4995793;28;20038;-76
2022/10/20 10:01:13;;;;;;;26.15;8.27;;;;;;;;;;4995685;28;20061;-76
2022/10/20 10:03:47;;;;;;;19.15;7.47;;;;;;;;;;4995765;28;20026;-76
2022/10/20 10:06:25;;;;;;;24.50;8.38;;;;;;;;;;4999819;28;20056;-76
2022/10/20 10:08:51;;;;;;;21.90;7.22;;;;;;;;;;4995783;28;20482;-76
2022/10/20 10:11:18;;;;;;;20.40;7.78;;;;;;;;;;4978593;28;20086;-75
2022/10/20 10:13:47;;;;;;;29.27;7.88;;;;;;;;;;4995884;28;20030;-75
2022/10/20 10:16:16;;;;;;;28.63;8.05;;;;;;;;;;4997219;28;20461;-75
2022/10/20 10:18:44;;;;;;;30.05;7.82;;;;;;;;;;4977639;28;20483;-75
2022/10/20 10:21:14;;;;;;;23.48;7.50;;;;;;;;;;4996022;28;20030;-74
2022/10/20 10:24:02;;;;;;;24.97;7.60;;;;;;;;;;4995326;28;20018;-76
2022/10/20 10:26:38;;;;;;;26.90;7.47;;;;;;;;;;4999920;28;20080;-75
2022/10/20 10:29:04;;;;;;;24.30;7.65;;;;;;;;;;5005600;28;20084;-74
2022/10/20 10:31:31;;;;;;;20.85;6.95;;;;;;;;;;5005196;28;20337;-76
2022/10/20 10:34:17;;;;;;;23.60;6.95;;;;;;;;;;4984990;28;20339;-77
2022/10/20 10:36:42;;;;;;;23.40;6.78;;;;;;;;;;4987795;28;20043;-74
2022/10/20 10:39:13;;;;;;;24.75;7.30;;;;;;;;;;5003973;28;20178;-76
2022/10/20 10:41:45;;;;;;;24.02;6.93;;;;;;;;;;4986559;28;20042;-79
2022/10/20 10:44:37;;;;;;;24.23;6.78;;;;;;;;;;5004094;28;20050;-76
2022/10/20 10:47:18;;;;;;;22.08;6.68;;;;;;;;;;5003536;28;20113;-85
2022/10/20 10:50:17;;;;;;;20.88;6.32;;;;;;;;;;5004277;28;20026;-79
2022/10/20 10:53:16;;;;;;;20.27;6.50;;;;;;;;;;4991067;28;20242;-79
2022/10/20 10:55:57;;;;;;;19.20;6.03;;;;;;;;;;5004352;28;20044;-82
2022/10/20 10:58:33;;;;;;;25.17;6.60;;;;;;;;;;5003771;28;20030;-77
2022/10/20 11:01:33;;;;;;;20.65;6.05;;;;;;;;;;5004150;28;20029;-81
2022/10/20 11:04:16;;;;;;;26.95;6.55;;;;;;;;;;5003096;28;20314;-79
2022/10/20 11:07:09;;;;;;;19.33;5.82;;;;;;;;;;5002200;28;20049;-79
2022/10/20 11:10:09;;;;;;;18.60;5.85;;;;;;;;;;4986460;28;20157;-78
2022/10/20 11:13:16;;;;;;;21.75;6.28;;;;;;;;;;5003801;28;20026;-77
2022/10/20 11:16:04;;;;;;;17.13;5.68;;;;;;;;;;5002668;28;20030;-83
2022/10/20 11:19:07;;;;;;;19.60;5.82;;;;;;;;;;5000971;28;20436;-82
2022/10/20 11:21:44;;;;;;;21.17;5.70;;;;;;;;;;4985703;28;20026;-83
2022/10/20 11:24:45;;;;;;;23.77;5.85;;;;;;;;;;5004261;28;20022;-79
2022/10/20 11:27:21;;;;;;;20.45;5.82;;;;;;;;;;4982860;28;20041;-79
2022/10/20 11:29:52;;;;;;;23.50;6.43;;;;;;;;;;5003803;28;20328;-80
2022/10/20 11:32:25;;;;;;;20.67;6.20;;;;;;;;;;5000968;28;20122;-78
2022/10/20 11:35:00;;;;;;;17.83;5.85;;;;;;;;;;5004184;28;20210;-79
2022/10/20 11:37:39;;;;;;;23.42;6.10;;;;;;;;;;5002861;28;20057;-78
2022/10/20 11:40:10;;;;;;;15.05;5.43;;;;;;;;;;5001787;28;20112;-81
2022/10/20 11:43:03;;;;;;;25.15;6.05;;;;;;;;;;5003932;28;20022;-78
2022/10/20 11:45:56;;;;;;;22.65;6.22;;;;;;;;;;4997513;28;20030;-79
2022/10/20 11:48:30;;;;;;;18.77;5.82;;;;;;;;;;5003539;28;20356;-79
2022/10/20 11:50:59;;;;;;;19.42;5.63;;;;;;;;;;4983101;28;20034;-83
2022/10/20 11:53:37;;;;;;;20.33;5.72;;;;;;;;;;5001253;28;20085;-82
2022/10/20 11:56:12;;;;;;;32.65;6.75;;;;;;;;;;4981739;28;20268;-83
2022/10/20 11:59:22;;;;;;;17.30;5.53;;;;;;;;;;5004585;28;20042;-82
2022/10/20 12:02:03;;;;;;;;;;;;;;;;;;5002723;28;20034;-77
2022/10/20 12:04:52;;;;;;;23.02;6.32;;;;;;;;;;4982155;28;20020;-80
2022/10/20 12:07:43;;;;;;;24.85;6.75;;;;;;;;;;5003767;28;20108;-77
2022/10/20 12:10:16;;;;;;;18.13;6.65;;;;;;;;;;5003275;28;20034;-78
2022/10/20 12:12:49;;;;;;;20.88;5.60;;;;;;;;;;5003261;28;20369;-78
2022/10/20 12:15:21;;;;;;;21.02;6.00;;;;;;;;;;5002421;28;20458;-78
2022/10/20 12:17:47;;;;;;;17.17;5.25;;;;;;;;;;5003834;28;20027;-83
2022/10/20 12:20:19;;;;;;;21.15;5.50;;;;;;;;;;4982633;28;20105;-84
2022/10/20 12:22:45;;;;;;;17.65;5.43;;;;;;;;;;4979944;28;20104;-84
2022/10/20 12:25:25;;;;;;;18.88;5.68;;;;;;;;;;4998672;28;20033;-80
2022/10/20 12:28:18;;;;;;;25.50;6.23;;;;;;;;;;4995930;28;20077;-80
2022/10/20 12:30:59;;;;;;;20.90;5.22;;;;;;;;;;5004472;28;20102;-79
2022/10/20 12:33:50;;;;;;;15.93;5.53;;;;;;;;;;5004189;28;20026;-78
2022/10/20 12:36:16;;;;;;;21.05;5.70;;;;;;;;;;5003935;28;20049;-80
2022/10/20 12:38:46;;;;;;;17.15;5.38;;;;;;;;;;5002527;28;20089;-78
2022/10/20 12:41:26;;;;;;;21.30;5.57;;;;;;;;;;5004310;28;20018;-81
2022/10/20 12:43:53;;;;;;;18.95;5.60;;;;;;;;;;5003740;28;20117;-80
2022/10/20 12:46:27;;;;;;;21.92;5.93;;;;;;;;;;5002963;28;20030;-80
2022/10/20 12:48:58;;;;;;;17.02;5.22;;;;;;;;;;5003885;28;20054;-80
2022/10/20 12:51:39;;;;;;;25.58;5.63;;;;;;;;;;5003810;28;20022;-80
2022/10/20 12:54:17;;;;;;;24.65;5.65;;;;;;;;;;5003663;28;20056;-80
2022/10/20 12:56:44;;;;;;;17.20;5.40;;;;;;;;;;5003646;28;20085;-80
2022/10/20 12:59:27;;;;;;;22.13;5.63;;;;;;;;;;5004563;28;20030;-81
2022/10/20 13:02:07;;;;;;;24.27;5.45;;;;;;;;;;5000355;28;20459;-80
2022/10/20 13:04:57;;;;;;;20.50;5.50;;;;;;;;;;5004758;28;20102;-79
2022/10/20 13:07:44;;;;;;;21.65;4.90;;;;;;;;;;5004781;28;20030;-81
2022/10/20 13:10:31;;;;;;;18.83;5.15;;;;;;;;;;5001723;28;20037;-78
2022/10/20 13:12:59;;;;;;;20.02;5.30;;;;;;;;;;5004149;28;20018;-77
2022/10/20 13:15:26;;;;;;;18.73;4.97;;;;;;;;;;5005652;28;20033;-76
2022/10/20 13:17:56;;;;;;;19.98;5.13;;;;;;;;;;5002770;28;20027;-79
2022/10/20 13:20:28;;;;;;;23.55;5.43;;;;;;;;;;5003059;28;20045;-79
2022/10/20 13:22:55;;;;;;;16.65;4.82;;;;;;;;;;4997194;28;20026;-78
2022/10/20 13:25:41;;;;;;;18.20;4.53;;;;;;;;;;5005360;28;20073;-79
2022/10/20 13:28:13;;;;;;;15.90;4.80;;;;;;;;;;4999658;28;20105;-79
2022/10/20 13:30:59;;;;;;;17.23;4.50;;;;;;;;;;5003247;28;20022;-81
2022/10/20 13:33:51;;;;;;;16.15;4.70;;;;;;;;;;5000835;28;20026;-81
2022/10/20 13:36:50;;;;;;;21.92;5.10;;;;;;;;;;5003535;28;20117;-81
2022/10/20 13:39:40;;;;;;;21.60;5.13;;;;;;;;;;4951284;28;20377;-82
2022/10/20 13:42:33;;;;;;;17.30;4.90;;;;;;;;;;5001028;28;20026;-83
2022/10/20 13:45:04;;;;;;;17.65;4.78;;;;;;;;;;5005475;28;20562;-83
2022/10/20 13:47:59;;;;;;;20.67;5.70;;;;;;;;;;5001565;28;20030;-84
2022/10/20 13:50:41;;;;;;;13.55;4.40;;;;;;;;;;5005215;28;20088;-84
2022/10/20 13:53:21;;;;;;;16.67;4.18;;;;;;;;;;5001108;28;20486;-81
2022/10/20 13:56:06;;;;;;;19.30;5.45;;;;;;;;;;4962923;28;20034;-81
2022/10/20 13:58:33;;;;;;;14.13;4.30;;;;;;;;;;4996362;28;20035;-84
2022/10/20 14:01:25;;;;;;;19.48;4.47;;;;;;;;;;4998822;28;20046;-83
2022/10/20 14:03:51;;;;;;;13.40;4.13;;;;;;;;;;4998268;28;20501;-78
2022/10/20 14:06:36;;;;;;;18.70;5.35;;;;;;;;;;4978687;28;20030;-78
2022/10/20 14:09:24;;;;;;;17.75;4.63;;;;;;;;;;4999411;28;20034;-78
2022/10/20 14:11:58;;;;;;;19.33;5.07;;;;;;;;;;4995066;28;20030;-78
2022/10/20 14:14:26;;;;;;;17.35;5.15;;;;;;;;;;4995754;28;20121;-78
2022/10/20 14:16:54;;;;;;;18.45;5.65;;;;;;;;;;4998363;28;20438;-80
2022/10/20 14:19:24;;;;;;;17.65;4.60;;;;;;;;;;4996060;28;20037;-76
2022/10/20 14:21:50;;;;;;;18.30;4.43;;;;;;;;;;4995538;28;20118;-78
2022/10/20 14:24:24;;;;;;;17.10;4.93;;;;;;;;;;4981346;28;20066;-81
2022/10/20 14:26:50;;;;;;;19.27;4.57;;;;;;;;;;4995506;28;20036;-82
2022/10/20 14:29:17;;;;;;;19.60;4.88;;;;;;;;;;4996973;28;20526;-78
2022/10/20 14:31:44;;;;;;;17.20;4.35;;;;;;;;;;4999313;28;20049;-80
2022/10/20 14:34:27;;;;;;;16.40;4.88;;;;;;;;;;4977703;28;20033;-76
2022/10/20 14:36:54;;;;;;;19.90;5.00;;;;;;;;;;4995413;28;20078;-78
2022/10/20 14:39:36;;;;;;;20.70;4.80;;;;;;;;;;4997156;28;20045;-80
2022/10/20 14:42:05;;;;;;;15.00;4.85;;;;;;;;;;5004438;28;20079;-78
2022/10/20 14:44:30;;;;;;;13.52;4.28;;;;;;;;;;5004468;28;20038;-80
2022/10/20 14:46:59;;;;;;;25.05;4.78;;;;;;;;;;5005256;28;20047;-80
2022/10/20 14:49:28;;;;;;;20.73;4.47;;;;;;;;;;5002149;28;20034;-80
2022/10/20 14:51:58;;;;;;;17.10;4.45;;;;;;;;;;4987772;28;20041;-80
2022/10/20 14:54:29;;;;;;;18.30;4.78;;;;;;;;;;5005643;28;20026;-80
2022/10/20 14:57:00;;;;;;;18.05;5.10;;;;;;;;;;5005279;28;20027;-80